createdAt,value
2023-01-20T00:01:22.860Z,23.35
2023-01-20T00:03:50.609Z,18.10
2023-01-20T00:06:17.065Z,23.75
2023-01-20T00:08:43.612Z,21.88
2023-01-20T00:11:12.902Z,26.90
2023-01-20T00:13:39.658Z,27.97
2023-01-20T00:16:08.825Z,23.70
2023-01-20T00:18:35.948Z,24.42
2023-01-20T00:21:13.637Z,24.23
2023-01-20T00:23:40.972Z,29.55
2023-01-20T00:26:16.233Z,23.48
2023-01-20T00:28:43.560Z,19.65
2023-01-20T00:31:30.636Z,27.30
2023-01-20T00:33:59.897Z,33.30
2023-01-20T00:36:28.232Z,25.30
2023-01-20T00:38:55.218Z,22.30
2023-01-20T00:41:21.583Z,21.63
2023-01-20T00:43:48.163Z,27.88
2023-01-20T00:46:15.338Z,25.58
2023-01-20T00:48:42.141Z,21.00
2023-01-20T00:51:09.640Z,23.38
2023-01-20T00:53:36.605Z,24.85
2023-01-20T00:56:03.583Z,24.95
2023-01-20T00:58:30.224Z,39.30
2023-01-20T01:00:58.636Z,18.77
2023-01-20T01:03:25.426Z,24.23
2023-01-20T01:05:51.837Z,27.13
2023-01-20T01:08:18.265Z,24.90
2023-01-20T01:10:44.670Z,27.88
2023-01-20T01:13:11.209Z,25.63
2023-01-20T01:15:37.811Z,26.95
2023-01-20T01:18:04.928Z,28.10
2023-01-20T01:20:31.679Z,26.38
2023-01-20T01:22:58.168Z,24.02
2023-01-20T01:25:24.690Z,26.45
2023-01-20T01:27:51.078Z,26.63
2023-01-20T01:30:17.657Z,26.65
2023-01-20T01:32:44.159Z,22.85
2023-01-20T01:35:10.733Z,34.55
2023-01-20T01:37:37.258Z,35.38
2023-01-20T01:40:04.082Z,32.70
2023-01-20T01:42:30.481Z,38.00
2023-01-20T01:45:12.922Z,34.60
2023-01-20T01:47:44.376Z,37.08
2023-01-20T01:50:25.055Z,36.60
2023-01-20T01:52:54.170Z,42.17
2023-01-20T01:55:25.811Z,46.97
2023-01-20T01:57:53.467Z,45.53
2023-01-20T02:00:20.641Z,43.50
2023-01-20T02:02:47.198Z,44.00
2023-01-20T02:05:16.137Z,47.78
2023-01-20T02:07:46.226Z,55.33
2023-01-20T02:10:14.041Z,48.80
2023-01-20T02:12:43.193Z,61.85
2023-01-20T02:15:09.927Z,50.45
2023-01-20T02:18:01.221Z,52.50
2023-01-20T02:20:50.445Z,56.85
2023-01-20T02:23:35.779Z,54.45
2023-01-20T02:26:25.525Z,66.78
2023-01-20T02:29:29.970Z,60.47
2023-01-20T02:32:15.901Z,64.85
2023-01-20T02:35:03.484Z,73.15
2023-01-20T02:37:40.433Z,79.28
2023-01-20T02:40:30.422Z,67.07
2023-01-20T02:43:17.504Z,71.40
2023-01-20T02:46:01.714Z,78.80
2023-01-20T02:48:35.743Z,70.63
2023-01-20T02:51:36.266Z,78.75
2023-01-20T02:54:08.221Z,81.15
2023-01-20T02:56:36.466Z,78.63
2023-01-20T02:59:11.008Z,72.20
2023-01-20T03:01:45.337Z,76.97
2023-01-20T03:04:16.451Z,83.13
2023-01-20T03:06:49.378Z,94.30
2023-01-20T03:09:21.204Z,88.18
2023-01-20T03:11:56.355Z,81.57
2023-01-20T03:14:23.332Z,82.47
2023-01-20T03:16:50.452Z,90.85
2023-01-20T03:19:20.534Z,105.85
2023-01-20T03:24:14.221Z,102.68
2023-01-20T03:26:41.106Z,110.35
2023-01-20T03:29:11.488Z,102.47
2023-01-20T03:31:46.759Z,96.28
2023-01-20T03:34:17.814Z,99.13
2023-01-20T03:36:45.938Z,101.82
2023-01-20T03:39:12.885Z,102.32
2023-01-20T03:42:01.067Z,92.53
2023-01-20T03:44:30.095Z,102.15
2023-01-20T03:47:29.041Z,98.35
2023-01-20T03:50:13.391Z,86.40
2023-01-20T03:52:54.448Z,91.93
2023-01-20T03:55:34.155Z,109.30
2023-01-20T03:58:04.884Z,99.18
2023-01-20T04:00:37.962Z,101.72
2023-01-20T04:03:11.790Z,111.05
2023-01-20T04:05:39.791Z,101.93
2023-01-20T04:08:09.363Z,116.95
2023-01-20T04:10:40.286Z,104.30
2023-01-20T04:13:06.763Z,110.13
2023-01-20T04:15:37.424Z,103.55
2023-01-20T04:18:23.564Z,113.05
2023-01-20T04:21:02.260Z,106.03
2023-01-20T04:23:48.978Z,110.38
2023-01-20T04:26:15.482Z,93.55
2023-01-20T04:28:42.154Z,99.40
2023-01-20T04:31:18.175Z,101.82
2023-01-20T04:33:51.628Z,90.75
2023-01-20T04:36:18.053Z,102.70
2023-01-20T04:38:44.470Z,95.78
2023-01-20T04:41:11.759Z,96.13
2023-01-20T04:43:38.220Z,109.13
2023-01-20T04:46:05.040Z,107.28
2023-01-20T04:48:31.431Z,106.10
2023-01-20T04:50:57.938Z,99.28
2023-01-20T04:53:24.378Z,99.72
2023-01-20T04:55:50.798Z,95.10
2023-01-20T04:58:17.200Z,101.28
2023-01-20T05:00:43.788Z,104.43
2023-01-20T05:03:10.533Z,98.43
2023-01-20T05:05:36.983Z,100.53
2023-01-20T05:08:05.287Z,97.10
2023-01-20T05:10:32.885Z,93.60
2023-01-20T05:12:59.983Z,104.97
2023-01-20T05:15:26.617Z,97.35
2023-01-20T05:17:53.060Z,104.43
2023-01-20T05:20:20.728Z,95.53
2023-01-20T05:22:48.152Z,95.95
2023-01-20T05:25:14.967Z,99.88
2023-01-20T05:27:41.623Z,100.97
2023-01-20T05:30:08.925Z,96.78
2023-01-20T05:32:35.337Z,97.18
2023-01-20T05:35:01.743Z,97.45
2023-01-20T05:37:28.352Z,103.43
2023-01-20T05:39:54.784Z,98.05
2023-01-20T05:42:21.166Z,90.70
2023-01-20T05:44:47.621Z,99.63
2023-01-20T05:47:14.187Z,92.20
2023-01-20T05:49:40.600Z,94.95
2023-01-20T05:52:07.033Z,87.88
2023-01-20T05:54:33.420Z,84.75
2023-01-20T05:56:59.869Z,85.13
2023-01-20T05:59:26.397Z,87.57
2023-01-20T06:01:52.786Z,84.63
2023-01-20T06:04:19.191Z,73.75
2023-01-20T06:06:45.586Z,83.50
2023-01-20T06:09:12.037Z,85.72
2023-01-20T06:11:38.449Z,88.47
2023-01-20T06:14:05.021Z,79.50
2023-01-20T06:16:31.532Z,75.00
2023-01-20T06:18:58.092Z,86.32
2023-01-20T06:21:24.948Z,95.75
2023-01-20T06:23:52.619Z,80.80
2023-01-20T06:26:19.051Z,80.63
2023-01-20T06:28:45.489Z,81.45
2023-01-20T06:31:14.761Z,77.53
2023-01-20T06:33:42.414Z,83.90
2023-01-20T06:36:13.405Z,91.10
2023-01-20T06:38:39.944Z,81.43
2023-01-20T06:41:10.395Z,85.90
2023-01-20T06:43:40.040Z,73.68
2023-01-20T06:46:09.771Z,77.43
2023-01-20T06:48:37.045Z,90.00
2023-01-20T06:51:07.193Z,77.88
2023-01-20T06:56:01.573Z,78.80
2023-01-20T06:58:31.026Z,83.20
2023-01-20T07:00:58.740Z,78.78
2023-01-20T07:03:25.248Z,89.70
2023-01-20T07:05:56.423Z,95.28
2023-01-20T07:08:22.880Z,92.28
2023-01-20T07:10:49.301Z,94.00
2023-01-20T07:13:15.737Z,87.13
2023-01-20T07:15:42.118Z,78.93
2023-01-20T07:18:08.586Z,75.75
2023-01-20T07:20:35.318Z,89.30
2023-01-20T07:23:02.739Z,89.03
2023-01-20T07:25:29.226Z,82.82
2023-01-20T07:27:57.656Z,79.45
2023-01-20T07:30:24.636Z,80.40
2023-01-20T07:32:51.539Z,83.13
2023-01-20T07:35:18.008Z,68.28
2023-01-20T07:37:44.426Z,87.60
2023-01-20T07:40:11.563Z,76.40
2023-01-20T07:42:38.457Z,72.63
2023-01-20T07:45:05.825Z,79.78
2023-01-20T07:47:32.303Z,72.13
2023-01-20T07:49:58.766Z,77.05
2023-01-20T07:52:25.135Z,72.75
2023-01-20T07:54:51.529Z,89.38
2023-01-20T07:57:17.948Z,75.88
2023-01-20T07:59:44.320Z,79.22
2023-01-20T08:02:10.767Z,73.80
2023-01-20T08:04:37.281Z,73.63
2023-01-20T08:07:04.023Z,72.00
2023-01-20T08:09:30.393Z,70.28
2023-01-20T08:11:56.854Z,73.75
2023-01-20T08:14:23.315Z,69.53
2023-01-20T08:16:50.289Z,69.82
2023-01-20T08:19:16.777Z,63.63
2023-01-20T08:21:43.188Z,69.15
2023-01-20T08:24:10.562Z,66.35
2023-01-20T08:26:37.069Z,70.78
2023-01-20T08:29:08.962Z,62.47
2023-01-20T08:31:35.930Z,68.88
2023-01-20T08:34:04.331Z,60.10
2023-01-20T08:36:34.104Z,62.38
2023-01-20T08:39:02.704Z,57.33
2023-01-20T08:41:32.692Z,67.00
2023-01-20T08:44:00.560Z,63.10
2023-01-20T08:46:27.305Z,59.75
2023-01-20T08:48:54.948Z,60.00
2023-01-20T08:51:32.283Z,60.45
2023-01-20T08:53:59.180Z,62.85
2023-01-20T08:56:25.982Z,62.40
2023-01-20T08:58:53.885Z,64.97
2023-01-20T09:01:23.292Z,60.38
2023-01-20T09:04:04.392Z,58.40
2023-01-20T09:06:38.491Z,62.60
2023-01-20T09:09:05.233Z,69.35
2023-01-20T09:11:31.838Z,65.53
2023-01-20T09:13:58.313Z,58.25
2023-01-20T09:16:24.730Z,63.25
2023-01-20T09:18:51.373Z,61.58
2023-01-20T09:21:17.759Z,57.28
2023-01-20T09:23:44.373Z,62.13
2023-01-20T09:26:11.046Z,68.40
2023-01-20T09:28:37.497Z,66.10
2023-01-20T09:31:07.226Z,61.28
2023-01-20T09:33:38.012Z,53.08
2023-01-20T09:36:07.206Z,54.47
2023-01-20T09:38:52.256Z,60.95
2023-01-20T09:41:47.157Z,107.97
2023-01-20T09:44:32.275Z,65.97
2023-01-20T09:47:21.062Z,74.10
2023-01-20T09:50:59.553Z,73.30
2023-01-20T09:53:34.525Z,68.25
2023-01-20T09:56:08.733Z,57.30
2023-01-20T09:58:39.980Z,79.75
2023-01-20T10:01:30.358Z,59.03
2023-01-20T10:04:06.381Z,58.75
2023-01-20T10:06:39.497Z,49.65
2023-01-20T10:09:10.611Z,51.00
2023-01-20T10:11:43.306Z,56.22
2023-01-20T10:14:23.972Z,50.40
2023-01-20T10:17:32.294Z,52.58
2023-01-20T10:20:05.028Z,47.55
2023-01-20T10:22:43.325Z,49.38
2023-01-20T10:25:20.029Z,45.42
2023-01-20T10:28:00.359Z,43.58
2023-01-20T10:33:03.933Z,46.80
2023-01-20T10:35:37.020Z,50.63
2023-01-20T10:38:07.661Z,51.90
2023-01-20T10:40:46.366Z,42.88
2023-01-20T10:43:15.323Z,53.47
2023-01-20T10:46:01.255Z,62.58
2023-01-20T10:49:13.055Z,64.50
2023-01-20T10:51:59.960Z,43.65
2023-01-20T10:54:48.583Z,44.17
2023-01-20T10:57:16.103Z,45.83
2023-01-20T10:59:51.068Z,45.00
2023-01-20T11:02:24.577Z,39.97
2023-01-20T11:04:57.368Z,45.45
2023-01-20T11:07:23.814Z,40.45
2023-01-20T11:09:50.246Z,40.50
2023-01-20T11:12:20.396Z,39.53
2023-01-20T11:17:18.108Z,37.10
2023-01-20T11:19:48.737Z,38.15
2023-01-20T11:22:22.465Z,49.50
2023-01-20T11:24:55.192Z,43.95
2023-01-20T11:27:24.596Z,39.92
2023-01-20T11:29:56.994Z,44.05
2023-01-20T11:32:25.271Z,42.75
2023-01-20T11:34:52.362Z,43.15
2023-01-20T11:37:21.699Z,39.65
2023-01-20T11:39:54.097Z,43.13
2023-01-20T11:42:25.896Z,42.60
2023-01-20T11:45:19.881Z,40.65
2023-01-20T11:48:00.524Z,41.50
2023-01-20T11:50:38.624Z,35.47
2023-01-20T11:53:15.970Z,39.10
2023-01-20T11:55:55.758Z,39.25
2023-01-20T11:58:28.461Z,40.40
2023-01-20T12:01:04.309Z,41.22
2023-01-20T12:03:58.528Z,39.63
2023-01-20T12:06:28.951Z,37.50
2023-01-20T12:09:15.526Z,40.90
2023-01-20T12:12:12.951Z,39.25
2023-01-20T12:14:47.166Z,45.20
2023-01-20T12:17:22.861Z,37.10
2023-01-20T12:20:11.181Z,46.35
2023-01-20T12:23:04.503Z,38.97
2023-01-20T12:25:36.747Z,43.72
2023-01-20T12:28:12.395Z,47.38
2023-01-20T12:30:47.622Z,38.15
2023-01-20T12:33:23.196Z,42.45
2023-01-20T12:36:20.279Z,45.75
2023-01-20T12:39:12.497Z,43.40
2023-01-20T12:41:41.791Z,49.00
2023-01-20T12:44:57.541Z,43.00
2023-01-20T12:47:33.071Z,46.90
2023-01-20T12:50:30.080Z,45.83
2023-01-20T12:53:17.111Z,42.50
2023-01-20T12:56:06.734Z,39.05
2023-01-20T12:59:08.173Z,41.40
2023-01-20T13:01:42.698Z,44.92
2023-01-20T13:04:33.890Z,39.25
2023-01-20T13:07:23.419Z,45.88
2023-01-20T13:10:16.131Z,42.00
2023-01-20T13:13:04.082Z,36.85
2023-01-20T13:15:37.143Z,40.42
2023-01-20T13:18:30.821Z,36.25
2023-01-20T13:20:57.296Z,44.83
2023-01-20T13:23:27.722Z,42.17
2023-01-20T13:25:55.562Z,38.35
2023-01-20T13:28:25.604Z,37.95
2023-01-20T13:30:54.946Z,34.15
2023-01-20T13:33:42.150Z,35.47
2023-01-20T13:36:21.160Z,37.22
2023-01-20T13:38:50.205Z,38.03
2023-01-20T13:41:49.118Z,35.00
2023-01-20T13:44:42.488Z,37.10
2023-01-20T13:47:11.356Z,33.55
2023-01-20T13:49:48.798Z,34.45
2023-01-20T13:52:16.187Z,34.88
2023-01-20T13:54:44.991Z,34.05
2023-01-20T13:57:23.093Z,31.25
2023-01-20T13:59:50.294Z,36.40
2023-01-20T14:02:22.749Z,35.25
2023-01-20T14:04:49.950Z,32.90
2023-01-20T14:07:26.540Z,34.20
2023-01-20T14:09:58.495Z,35.15
2023-01-20T14:12:25.925Z,33.08
2023-01-20T14:14:53.344Z,34.60
2023-01-20T14:17:22.895Z,35.13
2023-01-20T14:19:54.812Z,36.72
2023-01-20T14:22:21.249Z,33.42
2023-01-20T14:24:50.044Z,36.88
2023-01-20T14:27:27.085Z,33.88
2023-01-20T14:29:55.940Z,40.05
2023-01-20T14:32:25.947Z,35.10
2023-01-20T14:34:56.373Z,45.80
2023-01-20T14:37:28.864Z,36.63
2023-01-20T14:39:58.670Z,37.90
2023-01-20T14:42:28.057Z,39.15
2023-01-20T14:44:56.231Z,33.67
2023-01-20T14:47:25.887Z,38.78
2023-01-20T14:49:55.012Z,43.08
2023-01-20T14:52:30.918Z,42.92
2023-01-20T14:54:57.836Z,46.90
2023-01-20T14:57:40.518Z,42.05
2023-01-20T15:00:20.363Z,38.70
2023-01-20T15:03:05.379Z,41.50
2023-01-20T15:05:39.210Z,35.00
2023-01-20T15:08:11.435Z,40.67
2023-01-20T15:10:42.079Z,42.53
2023-01-20T15:13:26.564Z,40.53
2023-01-20T15:16:06.923Z,39.08
2023-01-20T15:18:33.485Z,50.63
2023-01-20T15:21:17.949Z,78.65
2023-01-20T15:23:45.783Z,59.15
2023-01-20T15:26:26.611Z,76.93
2023-01-20T15:28:54.500Z,59.13
2023-01-20T15:31:21.681Z,70.07
2023-01-20T15:33:48.830Z,60.17
2023-01-20T15:36:24.286Z,61.75
2023-01-20T15:38:50.881Z,57.00
2023-01-20T15:41:17.387Z,49.17
2023-01-20T15:43:45.497Z,54.55
2023-01-20T15:46:13.352Z,61.97
2023-01-20T15:48:39.943Z,51.78
2023-01-20T15:51:07.172Z,54.65
2023-01-20T15:53:34.985Z,57.67
2023-01-20T15:56:01.951Z,61.45
2023-01-20T15:58:32.971Z,54.42
2023-01-20T16:01:00.112Z,60.80
2023-01-20T16:03:28.040Z,78.72
2023-01-20T16:05:55.682Z,102.57
2023-01-20T16:08:25.744Z,98.32
2023-01-20T16:10:52.191Z,76.30
2023-01-20T16:13:18.666Z,85.45
2023-01-20T16:15:45.170Z,70.18
2023-01-20T16:18:13.583Z,83.35
2023-01-20T16:20:41.022Z,66.25
2023-01-20T16:23:07.747Z,57.10
2023-01-20T16:25:34.251Z,66.25
2023-01-20T16:28:01.207Z,70.40
2023-01-20T16:30:28.125Z,98.25
2023-01-20T16:32:54.895Z,81.28
2023-01-20T16:35:23.692Z,74.65
2023-01-20T16:37:50.190Z,79.60
2023-01-20T16:40:19.745Z,79.20
2023-01-20T16:42:46.758Z,79.78
2023-01-20T16:45:26.309Z,80.65
2023-01-20T16:47:52.947Z,75.05
2023-01-20T16:50:19.459Z,76.18
2023-01-20T16:52:46.807Z,78.97
2023-01-20T16:55:13.951Z,78.93
2023-01-20T16:57:40.593Z,74.78
2023-01-20T17:00:08.551Z,76.55
2023-01-20T17:02:35.017Z,69.35
2023-01-20T17:05:01.429Z,87.25
2023-01-20T17:07:28.024Z,84.60
2023-01-20T17:09:54.481Z,80.45
2023-01-20T17:12:20.854Z,80.07
2023-01-20T17:14:47.241Z,86.22
2023-01-20T17:17:13.712Z,80.03
2023-01-20T17:19:40.080Z,74.88
2023-01-20T17:22:06.829Z,71.32
2023-01-20T17:24:33.419Z,77.40
2023-01-20T17:26:59.890Z,76.97
2023-01-20T17:29:27.027Z,76.80
2023-01-20T17:31:53.742Z,83.07
2023-01-20T17:34:20.195Z,72.70
2023-01-20T17:36:48.252Z,78.45
2023-01-20T17:39:14.676Z,80.30
2023-01-20T17:41:41.303Z,78.63
2023-01-20T17:44:07.868Z,72.07
2023-01-20T17:46:34.300Z,69.55
2023-01-20T17:49:06.757Z,80.63
2023-01-20T17:51:33.323Z,80.57
2023-01-20T17:54:03.782Z,76.05
2023-01-20T17:56:31.105Z,76.32
2023-01-20T17:58:57.761Z,75.57
2023-01-20T18:01:27.610Z,74.55
2023-01-20T18:03:56.389Z,69.03
2023-01-20T18:06:24.493Z,74.40
2023-01-20T18:08:53.682Z,68.05
2023-01-20T18:11:22.862Z,69.82
2023-01-20T18:13:51.224Z,66.10
2023-01-20T18:16:20.107Z,72.70
2023-01-20T18:18:48.373Z,80.57
2023-01-20T18:21:17.650Z,72.15
2023-01-20T18:23:45.226Z,73.67
2023-01-20T18:26:13.775Z,81.28
2023-01-20T18:28:41.751Z,75.07
2023-01-20T18:31:11.489Z,67.32
2023-01-20T18:33:41.505Z,68.00
2023-01-20T18:36:09.649Z,78.20
2023-01-20T18:38:36.280Z,69.53
2023-01-20T18:41:03.167Z,80.38
2023-01-20T18:43:30.077Z,74.60
2023-01-20T18:45:56.509Z,73.20
2023-01-20T18:48:23.241Z,79.88
2023-01-20T18:50:49.656Z,72.72
2023-01-20T18:53:16.156Z,77.10
2023-01-20T18:55:42.660Z,78.50
2023-01-20T18:58:09.682Z,80.25
2023-01-20T19:00:36.127Z,78.20
2023-01-20T19:03:02.586Z,76.38
2023-01-20T19:05:31.362Z,82.03
2023-01-20T19:07:57.749Z,76.93
2023-01-20T19:10:24.269Z,81.78
2023-01-20T19:12:51.933Z,84.88
2023-01-20T19:15:18.686Z,86.35
2023-01-20T19:17:45.089Z,78.38
2023-01-20T19:20:11.635Z,86.03
2023-01-20T19:22:39.162Z,82.88
2023-01-20T19:25:06.429Z,72.93
2023-01-20T19:27:32.881Z,88.22
2023-01-20T19:29:59.359Z,81.57
2023-01-20T19:32:25.991Z,87.03
2023-01-20T19:34:52.713Z,87.45
2023-01-20T19:37:19.280Z,75.35
2023-01-20T19:39:45.684Z,86.28
2023-01-20T19:42:12.066Z,85.07
2023-01-20T19:44:38.893Z,85.55
2023-01-20T19:47:05.742Z,88.05
2023-01-20T19:49:32.165Z,85.57
2023-01-20T19:51:59.801Z,86.43
2023-01-20T19:54:28.500Z,88.18
2023-01-20T19:56:55.017Z,92.40
2023-01-20T19:59:21.533Z,86.72
2023-01-20T20:01:47.976Z,90.53
2023-01-20T20:04:14.476Z,89.05
2023-01-20T20:06:44.701Z,86.10
2023-01-20T20:09:16.472Z,77.82
2023-01-20T20:11:43.433Z,78.13
2023-01-20T20:14:14.012Z,79.88
2023-01-20T20:16:41.070Z,84.75
2023-01-20T20:19:09.847Z,80.03
2023-01-20T20:21:36.441Z,85.93
2023-01-20T20:24:05.415Z,79.00
2023-01-20T20:26:40.941Z,89.97
2023-01-20T20:29:08.636Z,75.10
2023-01-20T20:31:37.329Z,77.07
2023-01-20T20:34:05.557Z,88.55
2023-01-20T20:36:33.455Z,83.63
2023-01-20T20:39:01.393Z,85.32
2023-01-20T20:41:31.040Z,87.97
2023-01-20T20:43:59.255Z,85.47
2023-01-20T20:46:26.405Z,90.28
2023-01-20T20:48:54.725Z,85.93
2023-01-20T20:51:23.839Z,82.95
2023-01-20T20:53:54.520Z,88.47
2023-01-20T20:56:21.404Z,79.22
2023-01-20T20:59:00.361Z,82.55
2023-01-20T21:01:29.097Z,87.45
2023-01-20T21:03:57.542Z,79.50
2023-01-20T21:06:24.112Z,86.32
2023-01-20T21:08:50.565Z,86.30
2023-01-20T21:11:17.094Z,78.45
2023-01-20T21:13:44.402Z,84.80
2023-01-20T21:16:15.173Z,79.43
2023-01-20T21:18:41.727Z,81.78
2023-01-20T21:21:12.496Z,82.63
2023-01-20T21:23:40.586Z,83.72
2023-01-20T21:26:11.592Z,85.50
2023-01-20T21:28:39.783Z,82.30
2023-01-20T21:31:07.809Z,82.85
2023-01-20T21:33:35.702Z,85.65
2023-01-20T21:36:04.011Z,94.40
2023-01-20T21:38:31.386Z,83.63
2023-01-20T21:41:03.889Z,83.38
2023-01-20T21:43:53.347Z,84.43
2023-01-20T21:46:20.529Z,85.72
2023-01-20T21:49:06.307Z,92.10
2023-01-20T21:51:51.661Z,81.90
2023-01-20T21:54:19.134Z,82.80
2023-01-20T21:56:45.888Z,80.18
2023-01-20T21:59:12.428Z,76.28
2023-01-20T22:01:39.873Z,75.75
2023-01-20T22:04:06.429Z,117.78
2023-01-20T22:06:32.865Z,96.65
2023-01-20T22:08:59.646Z,84.75
2023-01-20T22:11:26.931Z,79.10
2023-01-20T22:13:56.800Z,79.15
2023-01-20T22:16:24.511Z,75.20
2023-01-20T22:18:51.995Z,74.38
2023-01-20T22:21:19.021Z,69.65
2023-01-20T22:23:46.119Z,78.90
2023-01-20T22:26:12.683Z,67.55
2023-01-20T22:28:39.780Z,67.35
2023-01-20T22:31:19.926Z,61.50
2023-01-20T22:36:16.362Z,59.33
2023-01-20T22:38:43.047Z,71.78
2023-01-20T22:41:09.636Z,62.22
2023-01-20T22:43:37.859Z,67.90
2023-01-20T22:46:04.970Z,66.95
2023-01-20T22:48:33.334Z,52.45
2023-01-20T22:51:17.136Z,55.88
2023-01-20T22:53:44.077Z,50.83
2023-01-20T22:56:13.698Z,51.38
2023-01-20T22:58:40.736Z,51.22
2023-01-20T23:01:19.704Z,47.28
2023-01-20T23:03:46.927Z,54.30
2023-01-20T23:06:14.109Z,54.95
2023-01-20T23:08:41.372Z,66.53
2023-01-20T23:11:14.204Z,57.83
2023-01-20T23:13:41.024Z,58.42
2023-01-20T23:16:10.822Z,57.95
2023-01-20T23:18:37.227Z,61.85
2023-01-20T23:21:05.783Z,56.38
2023-01-20T23:23:33.163Z,65.00
2023-01-20T23:26:09.680Z,65.82
2023-01-20T23:28:36.474Z,58.50
2023-01-20T23:31:06.531Z,55.78
2023-01-20T23:33:33.873Z,53.42
2023-01-20T23:36:13.988Z,53.58
2023-01-20T23:38:41.086Z,49.22
2023-01-20T23:41:07.659Z,56.75
2023-01-20T23:43:34.513Z,51.88
2023-01-20T23:46:03.655Z,53.78
2023-01-20T23:48:30.457Z,49.95
2023-01-20T23:50:59.787Z,57.53
2023-01-20T23:53:28.038Z,56.73
2023-01-20T23:56:06.934Z,54.92
2023-01-20T23:58:33.711Z,57.47
